createdAt,value
2022-10-02T00:02:31.537Z,11.22
2022-10-02T00:05:07.348Z,11.55
2022-10-02T00:07:46.640Z,11.36
2022-10-02T00:10:21.482Z,11.35
2022-10-02T00:12:51.520Z,11.36
2022-10-02T00:15:27.828Z,11.44
2022-10-02T00:17:59.959Z,11.20
2022-10-02T00:20:55.673Z,11.50
2022-10-02T00:23:38.314Z,11.36
2022-10-02T00:26:19.051Z,11.29
2022-10-02T00:29:03.598Z,11.26
2022-10-02T00:31:52.966Z,11.29
2022-10-02T00:34:30.788Z,11.33
2022-10-02T00:37:32.721Z,11.44
2022-10-02T00:40:11.344Z,11.38
2022-10-02T00:43:15.463Z,11.36
2022-10-02T00:46:21.052Z,11.48
2022-10-02T00:48:57.857Z,11.22
2022-10-02T00:51:30.439Z,11.22
2022-10-02T00:54:25.831Z,11.12
2022-10-02T00:56:58.474Z,11.28
2022-10-02T00:59:58.378Z,11.24
2022-10-02T01:02:31.060Z,11.24
2022-10-02T01:05:03.642Z,11.14
2022-10-02T01:07:30.858Z,11.15
2022-10-02T01:09:57.478Z,11.11
2022-10-02T01:12:24.590Z,11.08
2022-10-02T01:14:51.252Z,11.37
2022-10-02T01:17:23.512Z,11.28
2022-10-02T01:19:51.307Z,11.13
2022-10-02T01:22:30.096Z,11.41
2022-10-02T01:24:58.263Z,11.34
2022-10-02T01:27:26.680Z,11.23
2022-10-02T01:30:03.230Z,11.31
2022-10-02T01:32:30.154Z,11.17
2022-10-02T01:34:57.407Z,11.14
2022-10-02T01:37:36.468Z,11.09
2022-10-02T01:40:09.180Z,11.43
2022-10-02T01:42:38.408Z,11.36
2022-10-02T01:45:07.983Z,11.51
2022-10-02T01:48:04.934Z,11.45
2022-10-02T01:51:00.597Z,11.49
2022-10-02T01:53:36.769Z,11.39
2022-10-02T01:56:30.995Z,11.33
2022-10-02T01:59:06.672Z,11.49
2022-10-02T02:01:36.357Z,11.49
2022-10-02T02:04:22.062Z,11.32
2022-10-02T02:07:18.028Z,11.43
2022-10-02T02:10:10.266Z,11.71
2022-10-02T02:12:45.692Z,11.66
2022-10-02T02:15:18.443Z,11.72
2022-10-02T02:17:53.725Z,11.64
2022-10-02T02:20:32.748Z,11.62
2022-10-02T02:23:06.635Z,11.82
2022-10-02T02:25:40.788Z,12.10
2022-10-02T02:28:12.567Z,12.07
2022-10-02T02:30:42.636Z,12.25
2022-10-02T02:33:17.351Z,12.07
2022-10-02T02:35:49.373Z,11.98
2022-10-02T02:38:24.953Z,11.95
2022-10-02T02:40:52.327Z,12.02
2022-10-02T02:43:26.604Z,12.17
2022-10-02T02:46:01.245Z,11.79
2022-10-02T02:48:36.934Z,12.31
2022-10-02T02:51:15.315Z,12.18
2022-10-02T02:53:53.916Z,12.18
2022-10-02T02:56:21.864Z,12.33
2022-10-02T02:59:08.529Z,12.44
2022-10-02T03:01:35.350Z,12.43
2022-10-02T03:04:02.182Z,12.33
2022-10-02T03:06:39.996Z,12.32
2022-10-02T03:09:12.531Z,12.42
2022-10-02T03:12:03.208Z,12.46
2022-10-02T03:14:42.847Z,12.14
2022-10-02T03:17:34.593Z,12.54
2022-10-02T03:20:12.786Z,12.21
2022-10-02T03:23:00.077Z,12.55
2022-10-02T03:25:38.448Z,12.50
2022-10-02T03:28:43.350Z,12.59
2022-10-02T03:31:12.697Z,12.59
2022-10-02T03:33:40.461Z,12.45
2022-10-02T03:36:07.224Z,12.50
2022-10-02T03:38:34.206Z,12.50
2022-10-02T03:41:00.923Z,12.24
2022-10-02T03:43:29.690Z,12.07
2022-10-02T03:45:56.846Z,12.07
2022-10-02T03:48:23.547Z,11.94
2022-10-02T03:50:51.149Z,12.25
2022-10-02T03:53:20.679Z,11.86
2022-10-02T03:56:30.065Z,12.19
2022-10-02T03:59:01.431Z,12.17
2022-10-02T04:01:48.181Z,12.33
2022-10-02T04:04:22.808Z,12.07
2022-10-02T04:07:04.967Z,11.80
2022-10-02T04:09:59.307Z,11.98
2022-10-02T04:12:39.122Z,12.01
2022-10-02T04:16:04.352Z,11.94
2022-10-02T04:19:06.365Z,12.12
2022-10-02T04:21:38.738Z,11.84
2022-10-02T04:24:15.580Z,11.71
2022-10-02T04:26:57.995Z,11.87
2022-10-02T04:29:32.686Z,12.08
2022-10-02T04:32:12.568Z,12.09
2022-10-02T04:34:39.519Z,11.78
2022-10-02T04:37:09.186Z,12.04
2022-10-02T04:39:43.476Z,11.96
2022-10-02T04:42:31.040Z,11.97
2022-10-02T04:45:23.398Z,12.01
2022-10-02T04:48:41.266Z,11.88
2022-10-02T04:51:28.258Z,11.88
2022-10-02T04:54:12.890Z,11.90
2022-10-02T04:56:52.398Z,11.77
2022-10-02T04:59:42.082Z,11.69
2022-10-02T05:02:27.556Z,11.85
2022-10-02T05:04:54.185Z,11.83
2022-10-02T05:07:23.558Z,11.83
2022-10-02T05:10:26.862Z,11.78
2022-10-02T05:12:59.674Z,11.90
2022-10-02T05:15:45.004Z,11.80
2022-10-02T05:18:28.787Z,11.76
2022-10-02T05:20:55.394Z,11.70
2022-10-02T05:24:07.009Z,11.93
2022-10-02T05:26:49.007Z,11.90
2022-10-02T05:29:28.355Z,11.76
2022-10-02T05:32:08.268Z,11.80
2022-10-02T05:34:43.892Z,11.55
2022-10-02T05:37:25.818Z,11.72
2022-10-02T05:40:11.103Z,11.56
2022-10-02T05:43:10.925Z,11.58
2022-10-02T05:45:38.756Z,10.99
2022-10-02T05:48:24.221Z,11.05
2022-10-02T05:50:55.348Z,11.22
2022-10-02T05:53:33.651Z,11.25
2022-10-02T05:56:15.629Z,11.14
2022-10-02T05:58:52.091Z,10.98
2022-10-02T06:01:29.725Z,11.17
2022-10-02T06:04:02.722Z,11.04
2022-10-02T06:06:39.693Z,11.06
2022-10-02T06:09:20.582Z,10.94
2022-10-02T06:11:59.190Z,11.08
2022-10-02T06:14:50.715Z,11.19
2022-10-02T06:17:35.296Z,11.20
2022-10-02T06:20:16.544Z,10.76
2022-10-02T06:23:21.787Z,11.21
2022-10-02T06:26:15.618Z,11.20
2022-10-02T06:29:02.483Z,11.29
2022-10-02T06:31:47.380Z,11.24
2022-10-02T06:34:14.928Z,11.05
2022-10-02T06:37:23.327Z,11.11
2022-10-02T06:40:18.261Z,11.23
2022-10-02T06:42:53.903Z,11.17
2022-10-02T06:45:39.178Z,10.83
2022-10-02T06:48:24.854Z,11.11
2022-10-02T06:50:54.794Z,10.83
2022-10-02T06:53:33.409Z,11.07
2022-10-02T06:56:39.111Z,11.23
2022-10-02T06:59:47.216Z,11.20
2022-10-02T07:02:29.102Z,11.35
2022-10-02T07:05:47.269Z,11.35
2022-10-02T07:08:37.529Z,11.23
2022-10-02T07:11:16.202Z,11.31
2022-10-02T07:13:59.044Z,11.46
2022-10-02T07:16:53.692Z,12.45
2022-10-02T07:19:28.399Z,12.96
2022-10-02T07:21:58.065Z,13.84
2022-10-02T07:24:36.878Z,14.68
2022-10-02T07:27:15.591Z,14.73
2022-10-02T07:30:06.711Z,14.62
2022-10-02T07:32:42.587Z,15.46
2022-10-02T07:35:19.665Z,15.82
2022-10-02T07:38:04.990Z,16.19
2022-10-02T07:40:47.408Z,16.21
2022-10-02T07:43:23.171Z,16.53
2022-10-02T07:46:39.274Z,16.69
2022-10-02T07:49:25.440Z,16.84
2022-10-02T07:52:01.123Z,17.03
2022-10-02T07:54:55.162Z,17.05
2022-10-02T07:57:43.675Z,16.99
2022-10-02T08:00:21.424Z,17.02
2022-10-02T08:03:05.408Z,17.19
2022-10-02T08:05:41.439Z,16.89
2022-10-02T08:08:33.203Z,16.99
2022-10-02T08:11:22.495Z,17.47
2022-10-02T08:13:49.399Z,17.88
2022-10-02T08:16:20.229Z,17.99
2022-10-02T08:18:54.637Z,17.80
2022-10-02T08:21:24.831Z,18.22
2022-10-02T08:23:59.835Z,17.62
2022-10-02T08:26:48.252Z,17.90
2022-10-02T08:29:24.319Z,17.97
2022-10-02T08:32:13.924Z,18.01
2022-10-02T08:34:44.328Z,16.97
2022-10-02T08:37:30.096Z,16.84
2022-10-02T08:40:29.227Z,17.43
2022-10-02T08:43:18.244Z,17.52
2022-10-02T08:46:22.316Z,16.70
2022-10-02T08:49:07.443Z,17.51
2022-10-02T08:51:56.351Z,17.12
2022-10-02T08:54:59.892Z,16.90
2022-10-02T08:57:48.339Z,16.85
2022-10-02T09:00:36.809Z,16.12
2022-10-02T09:03:46.480Z,16.32
2022-10-02T09:06:31.742Z,16.10
2022-10-02T09:09:17.260Z,16.06
2022-10-02T09:12:16.540Z,16.62
2022-10-02T09:15:15.309Z,17.01
2022-10-02T09:17:49.527Z,16.72
2022-10-02T09:21:02.570Z,17.23
2022-10-02T09:23:47.893Z,16.97
2022-10-02T09:26:32.076Z,16.43
2022-10-02T09:29:20.483Z,16.49
2022-10-02T09:31:59.301Z,16.95
2022-10-02T09:34:41.077Z,16.99
2022-10-02T09:37:29.553Z,16.46
2022-10-02T09:40:59.250Z,16.54
2022-10-02T09:44:03.761Z,16.44
2022-10-02T09:47:00.040Z,16.32
2022-10-02T09:49:47.977Z,16.93
2022-10-02T09:52:52.052Z,16.60
2022-10-02T09:55:39.287Z,16.54
2022-10-02T09:58:46.150Z,17.16
2022-10-02T10:01:27.387Z,16.75
2022-10-02T10:04:09.364Z,16.54
2022-10-02T10:06:51.392Z,16.24
2022-10-02T10:09:41.248Z,16.67
2022-10-02T10:13:00.089Z,17.13
2022-10-02T10:15:40.727Z,16.96
2022-10-02T10:18:10.561Z,16.46
2022-10-02T10:21:01.619Z,16.51
2022-10-02T10:24:04.000Z,16.58
2022-10-02T10:26:40.492Z,16.78
2022-10-02T10:29:45.580Z,17.02
2022-10-02T10:32:48.291Z,17.59
2022-10-02T10:35:34.955Z,16.91
2022-10-02T10:38:24.313Z,17.11
2022-10-02T10:44:32.040Z,17.48
2022-10-02T10:47:04.724Z,16.88
2022-10-02T10:50:09.567Z,17.10
2022-10-02T10:53:08.208Z,16.78
2022-10-02T10:56:07.370Z,17.16
2022-10-02T10:58:36.921Z,16.90
2022-10-02T11:01:28.347Z,17.25
2022-10-02T11:04:07.171Z,17.07
2022-10-02T11:07:09.485Z,16.94
2022-10-02T11:10:07.862Z,17.31
2022-10-02T11:12:52.838Z,17.60
2022-10-02T11:15:40.832Z,17.64
2022-10-02T11:21:13.268Z,17.92
2022-10-02T11:24:03.001Z,17.99
2022-10-02T11:26:51.106Z,18.02
2022-10-02T11:29:33.304Z,17.78
2022-10-02T11:32:14.849Z,17.72
2022-10-02T11:34:52.768Z,18.31
2022-10-02T11:37:48.528Z,18.44
2022-10-02T11:41:00.455Z,18.51
2022-10-02T11:43:43.775Z,18.38
2022-10-02T11:46:29.244Z,18.45
2022-10-02T11:49:32.501Z,18.27
2022-10-02T11:51:59.201Z,17.96
2022-10-02T11:54:37.613Z,17.73
2022-10-02T11:57:24.528Z,17.84
2022-10-02T12:00:14.977Z,17.42
2022-10-02T12:02:59.026Z,17.76
2022-10-02T12:05:58.485Z,17.73
2022-10-02T12:08:51.233Z,17.02
2022-10-02T12:11:44.248Z,17.14
2022-10-02T12:14:38.087Z,17.55
2022-10-02T12:17:38.171Z,17.61
2022-10-02T12:20:35.903Z,18.08
2022-10-02T12:23:52.631Z,17.90
2022-10-02T12:26:50.188Z,17.97
2022-10-02T12:29:41.122Z,17.26
2022-10-02T12:32:26.392Z,17.28
2022-10-02T12:35:23.499Z,17.47
2022-10-02T12:38:16.405Z,17.57
2022-10-02T12:51:05.506Z,17.86
2022-10-02T12:53:50.246Z,17.64
2022-10-02T12:56:46.221Z,18.15
2022-10-02T12:59:12.955Z,18.29
2022-10-02T13:01:52.476Z,18.19
2022-10-02T13:04:38.201Z,17.80
2022-10-02T13:07:42.849Z,18.41
2022-10-02T13:10:21.958Z,18.30
2022-10-02T13:12:52.407Z,18.31
2022-10-02T13:15:37.578Z,18.40
2022-10-02T13:18:17.347Z,18.39
2022-10-02T13:21:11.664Z,18.33
2022-10-02T13:24:10.799Z,18.59
2022-10-02T13:26:55.642Z,18.59
2022-10-02T13:29:43.636Z,18.51
2022-10-02T13:32:26.360Z,18.46
2022-10-02T13:35:17.772Z,18.78
2022-10-02T13:38:10.804Z,18.35
2022-10-02T13:41:05.167Z,18.62
2022-10-02T13:43:58.739Z,18.50
2022-10-02T13:46:55.028Z,18.82
2022-10-02T13:49:47.872Z,18.78
2022-10-02T13:52:27.667Z,18.94
2022-10-02T13:55:12.673Z,18.24
2022-10-02T13:58:12.463Z,18.62
2022-10-02T14:00:39.029Z,19.28
2022-10-02T14:03:26.523Z,19.22
2022-10-02T14:06:20.348Z,18.47
2022-10-02T14:09:36.273Z,18.49
2022-10-02T14:34:14.880Z,18.46
2022-10-02T14:57:53.870Z,18.47
2022-10-02T15:25:32.018Z,17.31
2022-10-02T15:28:49.642Z,18.29
2022-10-02T15:31:42.393Z,18.11
2022-10-02T15:34:38.035Z,18.09
2022-10-02T15:48:27.215Z,18.36
2022-10-02T15:51:09.220Z,18.80
2022-10-02T15:53:54.829Z,18.62
2022-10-02T15:56:36.749Z,18.92
2022-10-02T16:02:26.389Z,18.61
2022-10-02T16:05:31.630Z,18.69
2022-10-02T16:08:17.065Z,18.23
2022-10-02T16:11:08.774Z,18.40
2022-10-02T16:13:55.345Z,18.32
2022-10-02T16:16:56.852Z,18.34
2022-10-02T16:20:06.504Z,18.09
2022-10-02T16:22:57.534Z,17.68
2022-10-02T16:25:50.133Z,17.69
2022-10-02T16:28:23.186Z,17.79
2022-10-02T16:30:49.832Z,17.86
2022-10-02T16:33:32.808Z,17.50
2022-10-02T16:36:23.589Z,17.46
2022-10-02T16:39:31.996Z,16.79
2022-10-02T16:42:23.266Z,17.12
2022-10-02T16:45:22.439Z,17.07
2022-10-02T16:48:15.320Z,16.92
2022-10-02T16:51:09.551Z,17.20
2022-10-02T16:53:41.640Z,16.85
2022-10-02T16:56:32.530Z,16.59
2022-10-02T16:59:31.640Z,16.36
2022-10-02T17:06:00.910Z,16.22
2022-10-02T17:15:24.139Z,16.59
2022-10-02T17:30:27.293Z,16.42
2022-10-02T17:33:13.986Z,16.36
2022-10-02T17:36:19.671Z,16.33
2022-10-02T17:42:14.439Z,15.80
2022-10-02T17:45:15.769Z,16.31
2022-10-02T17:47:51.572Z,16.31
2022-10-02T17:50:30.367Z,16.09
2022-10-02T17:53:22.294Z,16.30
2022-10-02T17:56:28.711Z,16.29
2022-10-02T17:59:04.165Z,16.10
2022-10-02T18:01:36.913Z,16.14
2022-10-02T18:04:57.026Z,16.11
2022-10-02T18:08:06.973Z,15.92
2022-10-02T18:10:46.383Z,16.04
2022-10-02T18:13:20.583Z,16.00
2022-10-02T18:15:50.343Z,16.03
2022-10-02T18:18:26.615Z,16.01
2022-10-02T18:21:22.839Z,15.96
2022-10-02T18:24:06.541Z,16.11
2022-10-02T18:27:01.083Z,15.85
2022-10-02T18:29:39.759Z,15.99
2022-10-02T18:32:27.098Z,16.02
2022-10-02T18:35:08.944Z,16.11
2022-10-02T18:37:57.449Z,16.07
2022-10-02T18:40:35.233Z,15.91
2022-10-02T18:43:04.861Z,15.72
2022-10-02T18:45:46.765Z,15.85
2022-10-02T18:48:37.853Z,15.88
2022-10-02T18:51:52.650Z,15.75
2022-10-02T18:55:03.192Z,15.84
2022-10-02T18:57:51.878Z,15.83
2022-10-02T19:00:24.595Z,15.82
2022-10-02T19:03:15.444Z,15.76
2022-10-02T19:05:53.691Z,15.40
2022-10-02T19:09:03.826Z,15.74
2022-10-02T19:11:32.663Z,15.54
2022-10-02T19:14:02.286Z,15.26
2022-10-02T19:16:30.660Z,15.31
2022-10-02T19:19:09.918Z,15.35
2022-10-02T19:21:37.743Z,14.97
2022-10-02T19:24:15.299Z,15.03
2022-10-02T19:26:46.905Z,15.11
2022-10-02T19:29:27.563Z,14.88
2022-10-02T19:31:58.154Z,14.61
2022-10-02T19:34:31.007Z,14.98
2022-10-02T19:37:04.740Z,14.87
2022-10-02T19:39:38.477Z,14.85
2022-10-02T19:42:17.858Z,14.97
2022-10-02T19:44:49.654Z,15.01
2022-10-02T19:47:22.782Z,14.94
2022-10-02T19:49:52.351Z,14.32
2022-10-02T19:52:38.470Z,14.73
2022-10-02T19:55:22.702Z,14.84
2022-10-02T19:57:51.606Z,14.97
2022-10-02T20:00:20.345Z,14.75
2022-10-02T20:02:53.110Z,14.79
2022-10-02T20:05:31.681Z,14.84
2022-10-02T20:08:06.797Z,14.59
2022-10-02T20:10:51.918Z,14.90
2022-10-02T20:13:18.469Z,14.60
2022-10-02T20:16:13.595Z,14.74
2022-10-02T20:18:41.436Z,14.68
2022-10-02T20:21:17.951Z,14.42
2022-10-02T20:23:50.130Z,14.42
2022-10-02T20:26:23.247Z,14.25
2022-10-02T20:28:59.133Z,14.06
2022-10-02T20:31:55.345Z,14.16
2022-10-02T20:34:36.391Z,14.17
2022-10-02T20:37:08.734Z,14.27
2022-10-02T20:39:44.550Z,14.08
2022-10-02T20:42:36.397Z,14.11
2022-10-02T20:45:03.168Z,13.97
2022-10-02T20:47:48.574Z,14.05
2022-10-02T20:50:33.611Z,13.84
2022-10-02T20:53:06.359Z,13.82
2022-10-02T20:55:53.534Z,13.74
2022-10-02T20:58:38.946Z,13.76
2022-10-02T21:01:19.157Z,13.37
2022-10-02T21:04:26.713Z,13.50
2022-10-02T21:07:18.821Z,13.65
2022-10-02T21:09:45.386Z,13.64
2022-10-02T21:12:45.782Z,13.30
2022-10-02T21:15:18.684Z,13.77
2022-10-02T21:18:04.847Z,13.81
2022-10-02T21:20:59.243Z,13.85
2022-10-02T21:23:31.451Z,13.85
2022-10-02T21:26:06.978Z,13.86
2022-10-02T21:28:41.535Z,13.85
2022-10-02T21:31:38.686Z,13.70
2022-10-02T21:34:37.836Z,13.48
2022-10-02T21:37:15.553Z,13.62
2022-10-02T21:40:09.696Z,13.47
2022-10-02T21:42:42.517Z,13.36
2022-10-02T21:45:32.347Z,13.57
2022-10-02T21:48:30.452Z,13.58
2022-10-02T21:51:28.290Z,13.59
2022-10-02T21:54:35.738Z,13.53
2022-10-02T21:57:17.611Z,13.66
2022-10-02T21:59:46.932Z,13.63
2022-10-02T22:02:50.342Z,13.37
2022-10-02T22:05:38.481Z,13.52
2022-10-02T22:08:27.242Z,13.41
2022-10-02T22:11:24.287Z,13.14
2022-10-02T22:13:58.456Z,12.89
2022-10-02T22:16:44.113Z,13.00
2022-10-02T22:19:48.245Z,13.10
2022-10-02T22:22:38.272Z,13.05
2022-10-02T22:25:35.429Z,12.99
2022-10-02T22:28:34.566Z,12.91
2022-10-02T22:31:22.471Z,12.90
2022-10-02T22:34:30.556Z,12.81
2022-10-02T22:37:13.459Z,12.79
2022-10-02T22:40:03.730Z,12.61
2022-10-02T22:42:45.191Z,12.65
2022-10-02T22:45:39.153Z,12.68
2022-10-02T22:48:24.744Z,12.44
2022-10-02T22:50:58.216Z,12.71
2022-10-02T22:53:33.051Z,12.67
2022-10-02T22:56:00.157Z,12.76
2022-10-02T22:58:41.966Z,12.83
2022-10-02T23:01:26.921Z,12.75
2022-10-02T23:04:00.761Z,12.80
2022-10-02T23:06:55.513Z,12.82
2022-10-02T23:09:36.763Z,12.48
2022-10-02T23:12:43.254Z,12.88
2022-10-02T23:15:32.642Z,12.91
2022-10-02T23:18:15.915Z,12.96
2022-10-02T23:20:54.293Z,12.86
2022-10-02T23:23:28.424Z,13.01
2022-10-02T23:26:07.405Z,13.07
2022-10-02T23:28:41.672Z,13.11
2022-10-02T23:31:14.676Z,13.11
2022-10-02T23:33:52.933Z,13.07
2022-10-02T23:36:59.524Z,13.18
2022-10-02T23:39:56.742Z,13.25
2022-10-02T23:42:39.396Z,13.23
2022-10-02T23:45:19.443Z,13.34
2022-10-02T23:48:06.044Z,13.35
2022-10-02T23:51:10.135Z,13.35
2022-10-02T23:54:10.819Z,13.36
2022-10-02T23:56:55.784Z,13.29
2022-10-02T23:59:49.823Z,13.24
